Tetouan, Tetuan Sania Ramel Airport (GMTN)

NameTetuan Sania Ramel Airport
CityTetouan
CountryMorocco
ICAOGMTN
IATATTU
Altitude3 m
CoordinatesGoogle Map
Live Air TrafficLiveATC.net
METARGMTN 251700Z 26011KT 220V320 8000 BKN023 SCT050 20/14 Q1012 NOSIG
2020-04-25 17:00:00 Wind: West-Southwest (260°) 5.66 m/s - Visibility: 8000 m - Temperature: 20 °C - Dew point: 14 °C - Humidity: 68.5% - Pressure: 1012 hPa
Statistics

The table below shows the detailed information of all flights to/from Tetouan, Tetuan Sania Ramel Airport (GMTN).